sensor_id;sensor_type;location;lat;lon;timestamp;P1;durP1;ratioP1;P2;durP2;ratioP2
15454;SDS011;21057;51.024;7.540;2023-03-15T00:01:51;21.80;;;20.40;;
15454;SDS011;21057;51.024;7.540;2023-03-15T00:04:18;22.23;;;20.73;;
15454;SDS011;21057;51.024;7.540;2023-03-15T00:06:45;22.13;;;20.73;;
15454;SDS011;21057;51.024;7.540;2023-03-15T00:09:14;22.50;;;20.83;;
15454;SDS011;21057;51.024;7.540;2023-03-15T00:11:41;22.13;;;20.73;;
15454;SDS011;21057;51.024;7.540;2023-03-15T00:14:08;47.47;;;22.63;;
15454;SDS011;21057;51.024;7.540;2023-03-15T00:16:35;23.23;;;21.53;;
15454;SDS011;21057;51.024;7.540;2023-03-15T00:19:03;23.30;;;21.30;;
15454;SDS011;21057;51.024;7.540;2023-03-15T00:21:30;23.00;;;21.50;;
15454;SDS011;21057;51.024;7.540;2023-03-15T00:23:58;24.10;;;22.40;;
15454;SDS011;21057;51.024;7.540;2023-03-15T00:26:26;22.43;;;20.83;;
15454;SDS011;21057;51.024;7.540;2023-03-15T00:28:52;24.00;;;21.87;;
15454;SDS011;21057;51.024;7.540;2023-03-15T00:31:20;23.93;;;22.03;;
15454;SDS011;21057;51.024;7.540;2023-03-15T00:33:48;22.30;;;20.80;;
15454;SDS011;21057;51.024;7.540;2023-03-15T00:36:19;23.50;;;21.43;;
15454;SDS011;21057;51.024;7.540;2023-03-15T00:38:58;23.30;;;21.70;;
15454;SDS011;21057;51.024;7.540;2023-03-15T00:41:36;23.43;;;21.63;;
15454;SDS011;21057;51.024;7.540;2023-03-15T00:44:03;23.00;;;21.50;;
15454;SDS011;21057;51.024;7.540;2023-03-15T00:46:29;24.00;;;21.47;;
15454;SDS011;21057;51.024;7.540;2023-03-15T00:48:58;22.30;;;20.70;;
15454;SDS011;21057;51.024;7.540;2023-03-15T00:51:27;26.17;;;20.60;;
15454;SDS011;21057;51.024;7.540;2023-03-15T00:53:57;26.63;;;22.13;;
15454;SDS011;21057;51.024;7.540;2023-03-15T00:56:35;23.80;;;22.10;;
15454;SDS011;21057;51.024;7.540;2023-03-15T00:59:01;23.40;;;21.90;;
15454;SDS011;21057;51.024;7.540;2023-03-15T01:01:28;23.63;;;21.13;;
15454;SDS011;21057;51.024;7.540;2023-03-15T01:03:56;22.70;;;21.30;;
15454;SDS011;21057;51.024;7.540;2023-03-15T01:06:24;30.93;;;22.40;;
15454;SDS011;21057;51.024;7.540;2023-03-15T01:08:54;23.13;;;21.70;;
15454;SDS011;21057;51.024;7.540;2023-03-15T01:11:27;22.33;;;20.93;;
15454;SDS011;21057;51.024;7.540;2023-03-15T01:13:55;23.30;;;21.83;;
15454;SDS011;21057;51.024;7.540;2023-03-15T01:16:23;23.77;;;22.27;;
15454;SDS011;21057;51.024;7.540;2023-03-15T01:19:02;23.90;;;22.20;;
15454;SDS011;21057;51.024;7.540;2023-03-15T01:21:33;24.67;;;23.20;;
15454;SDS011;21057;51.024;7.540;2023-03-15T01:24:01;26.03;;;24.20;;
15454;SDS011;21057;51.024;7.540;2023-03-15T01:26:29;25.27;;;23.67;;
15454;SDS011;21057;51.024;7.540;2023-03-15T01:28:56;43.93;;;25.07;;
15454;SDS011;21057;51.024;7.540;2023-03-15T01:31:27;27.33;;;25.53;;
15454;SDS011;21057;51.024;7.540;2023-03-15T01:33:55;27.50;;;25.70;;
15454;SDS011;21057;51.024;7.540;2023-03-15T01:36:23;28.50;;;26.30;;
15454;SDS011;21057;51.024;7.540;2023-03-15T01:38:50;27.63;;;25.73;;
15454;SDS011;21057;51.024;7.540;2023-03-15T01:41:23;27.13;;;25.43;;
15454;SDS011;21057;51.024;7.540;2023-03-15T01:43:51;28.70;;;26.47;;
15454;SDS011;21057;51.024;7.540;2023-03-15T01:46:26;27.77;;;25.97;;
15454;SDS011;21057;51.024;7.540;2023-03-15T01:49:01;29.60;;;27.33;;
15454;SDS011;21057;51.024;7.540;2023-03-15T01:51:33;27.90;;;26.20;;
15454;SDS011;21057;51.024;7.540;2023-03-15T01:54:04;27.70;;;26.00;;
15454;SDS011;21057;51.024;7.540;2023-03-15T01:56:36;31.27;;;28.20;;
15454;SDS011;21057;51.024;7.540;2023-03-15T01:59:07;28.23;;;26.40;;
15454;SDS011;21057;51.024;7.540;2023-03-15T02:01:38;28.93;;;27.03;;
15454;SDS011;21057;51.024;7.540;2023-03-15T02:04:16;28.30;;;26.60;;
15454;SDS011;21057;51.024;7.540;2023-03-15T02:06:49;30.87;;;28.73;;
15454;SDS011;21057;51.024;7.540;2023-03-15T02:09:30;29.00;;;26.03;;
15454;SDS011;21057;51.024;7.540;2023-03-15T02:12:04;28.33;;;26.43;;
15454;SDS011;21057;51.024;7.540;2023-03-15T02:14:32;27.17;;;25.47;;
15454;SDS011;21057;51.024;7.540;2023-03-15T02:17:00;28.37;;;26.57;;
15454;SDS011;21057;51.024;7.540;2023-03-15T02:19:38;27.57;;;25.70;;
15454;SDS011;21057;51.024;7.540;2023-03-15T02:22:16;27.97;;;25.87;;
15454;SDS011;21057;51.024;7.540;2023-03-15T02:24:54;28.13;;;26.30;;
15454;SDS011;21057;51.024;7.540;2023-03-15T02:27:28;29.10;;;26.93;;
15454;SDS011;21057;51.024;7.540;2023-03-15T02:29:58;29.60;;;27.53;;
15454;SDS011;21057;51.024;7.540;2023-03-15T02:32:29;28.07;;;26.00;;
15454;SDS011;21057;51.024;7.540;2023-03-15T02:34:56;31.57;;;29.57;;
15454;SDS011;21057;51.024;7.540;2023-03-15T02:37:23;30.43;;;28.43;;
15454;SDS011;21057;51.024;7.540;2023-03-15T02:39:50;30.53;;;28.57;;
15454;SDS011;21057;51.024;7.540;2023-03-15T02:42:17;30.93;;;29.03;;
15454;SDS011;21057;51.024;7.540;2023-03-15T02:47:18;32.57;;;30.30;;
15454;SDS011;21057;51.024;7.540;2023-03-15T02:49:48;30.40;;;28.40;;
15454;SDS011;21057;51.024;7.540;2023-03-15T02:52:17;31.77;;;29.77;;
15454;SDS011;21057;51.024;7.540;2023-03-15T02:54:44;32.47;;;30.43;;
15454;SDS011;21057;51.024;7.540;2023-03-15T02:57:12;29.90;;;28.03;;
15454;SDS011;21057;51.024;7.540;2023-03-15T02:59:40;31.00;;;29.03;;
15454;SDS011;21057;51.024;7.540;2023-03-15T03:02:09;31.83;;;29.83;;
15454;SDS011;21057;51.024;7.540;2023-03-15T03:04:36;30.70;;;28.80;;
15454;SDS011;21057;51.024;7.540;2023-03-15T03:07:03;32.20;;;29.83;;
15454;SDS011;21057;51.024;7.540;2023-03-15T03:09:30;31.30;;;29.40;;
15454;SDS011;21057;51.024;7.540;2023-03-15T03:11:57;31.20;;;29.30;;
15454;SDS011;21057;51.024;7.540;2023-03-15T03:14:24;32.50;;;29.97;;
15454;SDS011;21057;51.024;7.540;2023-03-15T03:16:51;31.13;;;29.23;;
15454;SDS011;21057;51.024;7.540;2023-03-15T03:19:19;31.57;;;29.70;;
15454;SDS011;21057;51.024;7.540;2023-03-15T03:21:49;31.77;;;29.80;;
15454;SDS011;21057;51.024;7.540;2023-03-15T03:24:24;31.40;;;29.53;;
15454;SDS011;21057;51.024;7.540;2023-03-15T03:26:58;31.20;;;29.27;;
15454;SDS011;21057;51.024;7.540;2023-03-15T03:29:25;31.73;;;29.83;;
15454;SDS011;21057;51.024;7.540;2023-03-15T03:31:52;32.00;;;30.00;;
15454;SDS011;21057;51.024;7.540;2023-03-15T03:34:21;32.30;;;30.30;;
15454;SDS011;21057;51.024;7.540;2023-03-15T03:36:47;30.63;;;28.73;;
15454;SDS011;21057;51.024;7.540;2023-03-15T03:39:14;31.90;;;30.00;;
15454;SDS011;21057;51.024;7.540;2023-03-15T03:41:41;31.00;;;29.10;;
15454;SDS011;21057;51.024;7.540;2023-03-15T03:44:09;31.47;;;29.57;;
15454;SDS011;21057;51.024;7.540;2023-03-15T03:46:36;31.53;;;29.67;;
15454;SDS011;21057;51.024;7.540;2023-03-15T03:49:04;31.93;;;30.03;;
15454;SDS011;21057;51.024;7.540;2023-03-15T03:51:32;31.40;;;29.57;;
15454;SDS011;21057;51.024;7.540;2023-03-15T03:53:59;31.87;;;30.07;;
15454;SDS011;21057;51.024;7.540;2023-03-15T03:56:32;31.20;;;29.40;;
15454;SDS011;21057;51.024;7.540;2023-03-15T03:58:58;31.20;;;29.40;;
15454;SDS011;21057;51.024;7.540;2023-03-15T04:01:25;31.20;;;29.40;;
15454;SDS011;21057;51.024;7.540;2023-03-15T04:03:52;31.60;;;29.80;;
15454;SDS011;21057;51.024;7.540;2023-03-15T04:06:19;33.00;;;31.10;;
15454;SDS011;21057;51.024;7.540;2023-03-15T04:08:47;31.23;;;29.33;;
15454;SDS011;21057;51.024;7.540;2023-03-15T04:11:14;30.90;;;29.10;;
15454;SDS011;21057;51.024;7.540;2023-03-15T04:13:42;32.50;;;30.53;;
15454;SDS011;21057;51.024;7.540;2023-03-15T04:16:10;32.20;;;30.30;;
15454;SDS011;21057;51.024;7.540;2023-03-15T04:18:40;31.10;;;29.27;;
15454;SDS011;21057;51.024;7.540;2023-03-15T04:21:07;30.43;;;28.63;;
15454;SDS011;21057;51.024;7.540;2023-03-15T04:23:34;33.00;;;31.00;;
15454;SDS011;21057;51.024;7.540;2023-03-15T04:26:13;33.57;;;31.57;;
15454;SDS011;21057;51.024;7.540;2023-03-15T04:28:40;32.10;;;30.20;;
15454;SDS011;21057;51.024;7.540;2023-03-15T04:31:07;32.73;;;30.83;;
15454;SDS011;21057;51.024;7.540;2023-03-15T04:33:39;32.07;;;30.07;;
15454;SDS011;21057;51.024;7.540;2023-03-15T04:36:06;32.37;;;30.50;;
15454;SDS011;21057;51.024;7.540;2023-03-15T04:38:33;32.83;;;30.93;;
15454;SDS011;21057;51.024;7.540;2023-03-15T04:41:11;34.30;;;32.30;;
15454;SDS011;21057;51.024;7.540;2023-03-15T04:43:40;34.73;;;32.73;;
15454;SDS011;21057;51.024;7.540;2023-03-15T04:46:07;34.80;;;32.70;;
15454;SDS011;21057;51.024;7.540;2023-03-15T04:48:41;34.00;;;32.00;;
15454;SDS011;21057;51.024;7.540;2023-03-15T04:51:08;35.70;;;33.60;;
15454;SDS011;21057;51.024;7.540;2023-03-15T04:53:35;36.20;;;34.10;;
15454;SDS011;21057;51.024;7.540;2023-03-15T04:56:03;35.13;;;33.03;;
15454;SDS011;21057;51.024;7.540;2023-03-15T04:58:31;35.10;;;33.10;;
15454;SDS011;21057;51.024;7.540;2023-03-15T05:00:58;36.00;;;33.90;;
15454;SDS011;21057;51.024;7.540;2023-03-15T05:03:25;36.87;;;34.77;;
15454;SDS011;21057;51.024;7.540;2023-03-15T05:05:52;37.33;;;35.23;;
15454;SDS011;21057;51.024;7.540;2023-03-15T05:08:18;38.13;;;35.90;;
15454;SDS011;21057;51.024;7.540;2023-03-15T05:10:46;38.90;;;36.60;;
15454;SDS011;21057;51.024;7.540;2023-03-15T05:13:13;35.50;;;33.40;;
15454;SDS011;21057;51.024;7.540;2023-03-15T05:15:44;37.30;;;35.10;;
15454;SDS011;21057;51.024;7.540;2023-03-15T05:18:11;37.00;;;34.73;;
15454;SDS011;21057;51.024;7.540;2023-03-15T05:20:39;37.77;;;35.50;;
15454;SDS011;21057;51.024;7.540;2023-03-15T05:23:06;39.13;;;36.93;;
15454;SDS011;21057;51.024;7.540;2023-03-15T05:25:32;40.23;;;37.87;;
15454;SDS011;21057;51.024;7.540;2023-03-15T05:28:00;38.20;;;36.10;;
15454;SDS011;21057;51.024;7.540;2023-03-15T05:30:28;39.90;;;37.60;;
15454;SDS011;21057;51.024;7.540;2023-03-15T05:32:57;39.17;;;36.97;;
15454;SDS011;21057;51.024;7.540;2023-03-15T05:35:24;37.20;;;35.00;;
15454;SDS011;21057;51.024;7.540;2023-03-15T05:37:53;36.57;;;34.50;;
15454;SDS011;21057;51.024;7.540;2023-03-15T05:40:20;36.60;;;34.47;;
15454;SDS011;21057;51.024;7.540;2023-03-15T05:42:47;38.90;;;36.60;;
15454;SDS011;21057;51.024;7.540;2023-03-15T05:45:14;37.20;;;35.07;;
15454;SDS011;21057;51.024;7.540;2023-03-15T05:47:41;37.97;;;35.77;;
15454;SDS011;21057;51.024;7.540;2023-03-15T05:50:10;37.23;;;35.13;;
15454;SDS011;21057;51.024;7.540;2023-03-15T05:52:37;36.67;;;34.57;;
15454;SDS011;21057;51.024;7.540;2023-03-15T05:55:07;38.27;;;36.07;;
15454;SDS011;21057;51.024;7.540;2023-03-15T05:57:34;40.67;;;38.37;;
15454;SDS011;21057;51.024;7.540;2023-03-15T06:00:01;41.10;;;38.80;;
15454;SDS011;21057;51.024;7.540;2023-03-15T06:02:33;41.87;;;39.47;;
15454;SDS011;21057;51.024;7.540;2023-03-15T06:04:59;40.47;;;38.23;;
15454;SDS011;21057;51.024;7.540;2023-03-15T06:07:28;41.90;;;39.60;;
15454;SDS011;21057;51.024;7.540;2023-03-15T06:09:54;39.87;;;37.47;;
15454;SDS011;21057;51.024;7.540;2023-03-15T06:12:29;39.63;;;37.37;;
15454;SDS011;21057;51.024;7.540;2023-03-15T06:14:56;39.10;;;36.80;;
15454;SDS011;21057;51.024;7.540;2023-03-15T06:17:23;38.80;;;36.40;;
15454;SDS011;21057;51.024;7.540;2023-03-15T06:19:50;42.07;;;39.67;;
15454;SDS011;21057;51.024;7.540;2023-03-15T06:22:20;41.23;;;38.83;;
15454;SDS011;21057;51.024;7.540;2023-03-15T06:24:49;41.23;;;38.73;;
15454;SDS011;21057;51.024;7.540;2023-03-15T06:27:16;39.63;;;37.10;;
15454;SDS011;21057;51.024;7.540;2023-03-15T06:29:46;40.50;;;37.97;;
15454;SDS011;21057;51.024;7.540;2023-03-15T06:32:12;41.60;;;39.10;;
15454;SDS011;21057;51.024;7.540;2023-03-15T06:34:39;39.27;;;36.87;;
15454;SDS011;21057;51.024;7.540;2023-03-15T06:37:08;40.47;;;38.07;;
15454;SDS011;21057;51.024;7.540;2023-03-15T06:39:37;38.77;;;36.30;;
15454;SDS011;21057;51.024;7.540;2023-03-15T06:42:16;39.60;;;37.07;;
15454;SDS011;21057;51.024;7.540;2023-03-15T06:44:43;40.17;;;37.83;;
15454;SDS011;21057;51.024;7.540;2023-03-15T06:47:10;41.67;;;39.17;;
15454;SDS011;21057;51.024;7.540;2023-03-15T06:49:37;40.47;;;38.07;;
15454;SDS011;21057;51.024;7.540;2023-03-15T06:52:06;40.43;;;37.83;;
15454;SDS011;21057;51.024;7.540;2023-03-15T06:54:41;43.63;;;41.00;;
15454;SDS011;21057;51.024;7.540;2023-03-15T06:57:08;42.10;;;39.40;;
15454;SDS011;21057;51.024;7.540;2023-03-15T06:59:36;39.23;;;36.77;;
15454;SDS011;21057;51.024;7.540;2023-03-15T07:02:03;39.60;;;37.17;;
15454;SDS011;21057;51.024;7.540;2023-03-15T07:04:30;37.73;;;35.37;;
15454;SDS011;21057;51.024;7.540;2023-03-15T07:06:59;36.90;;;34.30;;
15454;SDS011;21057;51.024;7.540;2023-03-15T07:09:26;35.43;;;33.23;;
15454;SDS011;21057;51.024;7.540;2023-03-15T07:11:53;37.73;;;35.17;;
15454;SDS011;21057;51.024;7.540;2023-03-15T07:14:20;37.00;;;34.57;;
15454;SDS011;21057;51.024;7.540;2023-03-15T07:16:48;39.60;;;37.00;;
15454;SDS011;21057;51.024;7.540;2023-03-15T07:19:16;36.63;;;34.13;;
15454;SDS011;21057;51.024;7.540;2023-03-15T07:21:43;37.43;;;34.80;;
15454;SDS011;21057;51.024;7.540;2023-03-15T07:24:10;36.63;;;33.83;;
15454;SDS011;21057;51.024;7.540;2023-03-15T07:26:44;37.03;;;34.43;;
15454;SDS011;21057;51.024;7.540;2023-03-15T07:29:11;36.67;;;34.47;;
15454;SDS011;21057;51.024;7.540;2023-03-15T07:31:38;37.87;;;35.37;;
15454;SDS011;21057;51.024;7.540;2023-03-15T07:34:06;38.07;;;35.50;;
15454;SDS011;21057;51.024;7.540;2023-03-15T07:36:32;38.07;;;35.60;;
15454;SDS011;21057;51.024;7.540;2023-03-15T07:38:59;39.37;;;36.53;;
15454;SDS011;21057;51.024;7.540;2023-03-15T07:41:35;37.53;;;35.17;;
15454;SDS011;21057;51.024;7.540;2023-03-15T07:44:01;36.17;;;33.67;;
15454;SDS011;21057;51.024;7.540;2023-03-15T07:46:28;36.87;;;34.17;;
15454;SDS011;21057;51.024;7.540;2023-03-15T07:49:10;35.27;;;33.10;;
15454;SDS011;21057;51.024;7.540;2023-03-15T07:51:36;36.73;;;34.13;;
15454;SDS011;21057;51.024;7.540;2023-03-15T07:54:03;37.33;;;34.67;;
15454;SDS011;21057;51.024;7.540;2023-03-15T07:56:39;35.30;;;32.90;;
15454;SDS011;21057;51.024;7.540;2023-03-15T07:59:06;35.80;;;33.40;;
15454;SDS011;21057;51.024;7.540;2023-03-15T08:01:34;35.83;;;33.23;;
15454;SDS011;21057;51.024;7.540;2023-03-15T08:04:00;36.27;;;33.67;;
15454;SDS011;21057;51.024;7.540;2023-03-15T08:06:30;36.97;;;34.30;;
15454;SDS011;21057;51.024;7.540;2023-03-15T08:08:56;36.20;;;33.70;;
15454;SDS011;21057;51.024;7.540;2023-03-15T08:11:34;37.77;;;35.13;;
15454;SDS011;21057;51.024;7.540;2023-03-15T08:14:04;37.40;;;34.87;;
15454;SDS011;21057;51.024;7.540;2023-03-15T08:16:31;35.17;;;32.53;;
15454;SDS011;21057;51.024;7.540;2023-03-15T08:19:06;35.73;;;33.07;;
15454;SDS011;21057;51.024;7.540;2023-03-15T08:21:34;34.87;;;32.30;;
15454;SDS011;21057;51.024;7.540;2023-03-15T08:24:01;37.37;;;34.50;;
15454;SDS011;21057;51.024;7.540;2023-03-15T08:26:28;37.13;;;34.53;;
15454;SDS011;21057;51.024;7.540;2023-03-15T08:28:57;35.87;;;32.77;;
15454;SDS011;21057;51.024;7.540;2023-03-15T08:31:25;34.97;;;32.07;;
15454;SDS011;21057;51.024;7.540;2023-03-15T08:33:51;35.23;;;32.17;;
15454;SDS011;21057;51.024;7.540;2023-03-15T08:36:20;34.67;;;31.97;;
15454;SDS011;21057;51.024;7.540;2023-03-15T08:38:49;38.40;;;35.13;;
15454;SDS011;21057;51.024;7.540;2023-03-15T08:41:16;39.27;;;36.07;;
15454;SDS011;21057;51.024;7.540;2023-03-15T08:43:43;37.47;;;33.97;;
15454;SDS011;21057;51.024;7.540;2023-03-15T08:46:10;39.17;;;36.30;;
15454;SDS011;21057;51.024;7.540;2023-03-15T08:48:39;36.80;;;33.60;;
15454;SDS011;21057;51.024;7.540;2023-03-15T08:51:19;35.57;;;32.47;;
15454;SDS011;21057;51.024;7.540;2023-03-15T08:53:52;35.43;;;32.83;;
15454;SDS011;21057;51.024;7.540;2023-03-15T08:56:19;32.80;;;30.07;;
15454;SDS011;21057;51.024;7.540;2023-03-15T08:58:46;34.97;;;32.27;;
15454;SDS011;21057;51.024;7.540;2023-03-15T09:01:13;34.77;;;32.03;;
15454;SDS011;21057;51.024;7.540;2023-03-15T09:03:41;36.70;;;33.47;;
15454;SDS011;21057;51.024;7.540;2023-03-15T09:08:39;36.23;;;32.90;;
15454;SDS011;21057;51.024;7.540;2023-03-15T09:11:15;37.13;;;34.00;;
15454;SDS011;21057;51.024;7.540;2023-03-15T09:13:45;31.23;;;28.83;;
15454;SDS011;21057;51.024;7.540;2023-03-15T09:16:12;32.17;;;29.73;;
15454;SDS011;21057;51.024;7.540;2023-03-15T09:18:39;33.73;;;29.33;;
15454;SDS011;21057;51.024;7.540;2023-03-15T09:21:09;31.63;;;28.93;;
15454;SDS011;21057;51.024;7.540;2023-03-15T09:23:36;28.67;;;26.30;;
15454;SDS011;21057;51.024;7.540;2023-03-15T09:26:10;32.17;;;29.50;;
15454;SDS011;21057;51.024;7.540;2023-03-15T09:31:22;32.07;;;29.30;;
15454;SDS011;21057;51.024;7.540;2023-03-15T09:33:51;30.37;;;28.17;;
15454;SDS011;21057;51.024;7.540;2023-03-15T09:36:31;31.20;;;28.90;;
15454;SDS011;21057;51.024;7.540;2023-03-15T09:39:00;28.47;;;25.97;;
15454;SDS011;21057;51.024;7.540;2023-03-15T09:41:39;27.00;;;24.90;;
15454;SDS011;21057;51.024;7.540;2023-03-15T09:47:04;30.13;;;27.73;;
15454;SDS011;21057;51.024;7.540;2023-03-15T09:49:52;28.67;;;26.37;;
15454;SDS011;21057;51.024;7.540;2023-03-15T09:52:28;29.73;;;27.47;;
15454;SDS011;21057;51.024;7.540;2023-03-15T09:55:05;29.07;;;26.63;;
15454;SDS011;21057;51.024;7.540;2023-03-15T09:57:47;27.63;;;25.07;;
15454;SDS011;21057;51.024;7.540;2023-03-15T10:00:20;26.83;;;24.90;;
15454;SDS011;21057;51.024;7.540;2023-03-15T10:02:54;28.93;;;26.33;;
15454;SDS011;21057;51.024;7.540;2023-03-15T10:05:28;28.00;;;25.83;;
15454;SDS011;21057;51.024;7.540;2023-03-15T10:08:02;27.30;;;25.20;;
15454;SDS011;21057;51.024;7.540;2023-03-15T10:10:39;25.93;;;24.03;;
15454;SDS011;21057;51.024;7.540;2023-03-15T10:13:17;27.43;;;25.00;;
15454;SDS011;21057;51.024;7.540;2023-03-15T10:15:58;25.90;;;23.93;;
15454;SDS011;21057;51.024;7.540;2023-03-15T10:18:34;26.90;;;24.70;;
15454;SDS011;21057;51.024;7.540;2023-03-15T10:21:15;25.10;;;22.90;;
15454;SDS011;21057;51.024;7.540;2023-03-15T10:23:53;25.63;;;23.73;;
15454;SDS011;21057;51.024;7.540;2023-03-15T10:26:22;24.30;;;22.10;;
15454;SDS011;21057;51.024;7.540;2023-03-15T10:28:52;22.90;;;21.20;;
15454;SDS011;21057;51.024;7.540;2023-03-15T10:31:21;24.33;;;22.43;;
15454;SDS011;21057;51.024;7.540;2023-03-15T10:33:51;24.60;;;22.50;;
15454;SDS011;21057;51.024;7.540;2023-03-15T10:36:27;23.10;;;21.50;;
15454;SDS011;21057;51.024;7.540;2023-03-15T10:38:56;24.70;;;22.10;;
15454;SDS011;21057;51.024;7.540;2023-03-15T10:41:35;24.30;;;21.97;;
15454;SDS011;21057;51.024;7.540;2023-03-15T10:44:04;20.83;;;19.37;;
15454;SDS011;21057;51.024;7.540;2023-03-15T10:46:34;23.33;;;21.53;;
15454;SDS011;21057;51.024;7.540;2023-03-15T10:49:13;23.97;;;21.40;;
15454;SDS011;21057;51.024;7.540;2023-03-15T10:51:54;24.77;;;22.80;;
15454;SDS011;21057;51.024;7.540;2023-03-15T10:54:32;24.00;;;21.83;;
15454;SDS011;21057;51.024;7.540;2023-03-15T10:57:11;23.37;;;21.77;;
15454;SDS011;21057;51.024;7.540;2023-03-15T10:59:53;22.37;;;20.57;;
15454;SDS011;21057;51.024;7.540;2023-03-15T11:02:25;22.43;;;20.53;;
15454;SDS011;21057;51.024;7.540;2023-03-15T11:04:58;22.43;;;20.67;;
15454;SDS011;21057;51.024;7.540;2023-03-15T11:07:27;23.20;;;21.40;;
15454;SDS011;21057;51.024;7.540;2023-03-15T11:09:58;22.53;;;20.80;;
15454;SDS011;21057;51.024;7.540;2023-03-15T11:12:27;21.97;;;20.23;;
15454;SDS011;21057;51.024;7.540;2023-03-15T11:14:56;22.20;;;20.43;;
15454;SDS011;21057;51.024;7.540;2023-03-15T11:17:27;21.00;;;19.27;;
15454;SDS011;21057;51.024;7.540;2023-03-15T11:19:57;21.63;;;19.77;;
15454;SDS011;21057;51.024;7.540;2023-03-15T11:22:35;22.93;;;21.13;;
15454;SDS011;21057;51.024;7.540;2023-03-15T11:25:04;22.30;;;20.63;;
15454;SDS011;21057;51.024;7.540;2023-03-15T11:27:49;20.73;;;19.40;;
15454;SDS011;21057;51.024;7.540;2023-03-15T11:30:27;20.87;;;18.80;;
15454;SDS011;21057;51.024;7.540;2023-03-15T11:33:00;22.67;;;20.83;;
15454;SDS011;21057;51.024;7.540;2023-03-15T11:38:13;21.87;;;20.00;;
15454;SDS011;21057;51.024;7.540;2023-03-15T11:40:50;23.10;;;21.30;;
15454;SDS011;21057;51.024;7.540;2023-03-15T11:43:25;22.50;;;20.57;;
15454;SDS011;21057;51.024;7.540;2023-03-15T11:45:57;22.90;;;21.20;;
15454;SDS011;21057;51.024;7.540;2023-03-15T11:48:27;22.20;;;20.40;;
15454;SDS011;21057;51.024;7.540;2023-03-15T11:51:00;20.80;;;19.30;;
15454;SDS011;21057;51.024;7.540;2023-03-15T11:53:37;23.60;;;21.23;;
15454;SDS011;21057;51.024;7.540;2023-03-15T11:56:19;22.40;;;20.77;;
15454;SDS011;21057;51.024;7.540;2023-03-15T11:59:04;23.37;;;21.73;;
15454;SDS011;21057;51.024;7.540;2023-03-15T12:01:40;20.07;;;18.77;;
15454;SDS011;21057;51.024;7.540;2023-03-15T12:09:55;23.13;;;20.60;;
15454;SDS011;21057;51.024;7.540;2023-03-15T12:12:37;22.13;;;20.17;;
15454;SDS011;21057;51.024;7.540;2023-03-15T12:18:20;22.20;;;20.37;;
15454;SDS011;21057;51.024;7.540;2023-03-15T12:21:15;21.83;;;20.27;;
15454;SDS011;21057;51.024;7.540;2023-03-15T12:23:54;22.20;;;20.70;;
15454;SDS011;21057;51.024;7.540;2023-03-15T12:29:30;22.20;;;20.60;;
15454;SDS011;21057;51.024;7.540;2023-03-15T12:32:04;22.30;;;20.80;;
15454;SDS011;21057;51.024;7.540;2023-03-15T12:34:44;22.50;;;21.00;;
15454;SDS011;21057;51.024;7.540;2023-03-15T12:37:23;22.27;;;20.53;;
15454;SDS011;21057;51.024;7.540;2023-03-15T12:40:01;22.93;;;21.17;;
15454;SDS011;21057;51.024;7.540;2023-03-15T12:43:14;22.83;;;21.13;;
15454;SDS011;21057;51.024;7.540;2023-03-15T12:46:06;23.83;;;21.33;;
15454;SDS011;21057;51.024;7.540;2023-03-15T12:48:34;22.60;;;21.20;;
15454;SDS011;21057;51.024;7.540;2023-03-15T12:51:10;22.57;;;20.73;;
15454;SDS011;21057;51.024;7.540;2023-03-15T12:53:55;21.77;;;20.23;;
15454;SDS011;21057;51.024;7.540;2023-03-15T12:56:28;22.77;;;20.83;;
15454;SDS011;21057;51.024;7.540;2023-03-15T12:59:03;21.43;;;19.73;;
15454;SDS011;21057;51.024;7.540;2023-03-15T13:01:37;21.83;;;20.30;;
15454;SDS011;21057;51.024;7.540;2023-03-15T13:04:07;21.60;;;20.10;;
15454;SDS011;21057;51.024;7.540;2023-03-15T13:06:51;21.50;;;19.80;;
15454;SDS011;21057;51.024;7.540;2023-03-15T13:09:37;21.13;;;19.63;;
15454;SDS011;21057;51.024;7.540;2023-03-15T13:12:23;21.50;;;19.80;;
15454;SDS011;21057;51.024;7.540;2023-03-15T13:14:54;21.23;;;19.73;;
15454;SDS011;21057;51.024;7.540;2023-03-15T13:17:29;21.50;;;19.90;;
15454;SDS011;21057;51.024;7.540;2023-03-15T13:20:14;21.80;;;20.23;;
15454;SDS011;21057;51.024;7.540;2023-03-15T13:22:56;21.37;;;19.87;;
15454;SDS011;21057;51.024;7.540;2023-03-15T13:28:36;21.27;;;19.87;;
15454;SDS011;21057;51.024;7.540;2023-03-15T13:31:12;22.30;;;20.70;;
15454;SDS011;21057;51.024;7.540;2023-03-15T13:34:06;21.00;;;19.70;;
15454;SDS011;21057;51.024;7.540;2023-03-15T13:36:42;21.83;;;20.37;;
15454;SDS011;21057;51.024;7.540;2023-03-15T13:39:15;21.60;;;19.80;;
15454;SDS011;21057;51.024;7.540;2023-03-15T13:41:46;22.07;;;20.57;;
15454;SDS011;21057;51.024;7.540;2023-03-15T13:44:17;21.33;;;19.83;;
15454;SDS011;21057;51.024;7.540;2023-03-15T13:46:48;22.10;;;20.30;;
15454;SDS011;21057;51.024;7.540;2023-03-15T13:49:18;22.20;;;20.17;;
15454;SDS011;21057;51.024;7.540;2023-03-15T13:54:28;21.40;;;20.00;;
15454;SDS011;21057;51.024;7.540;2023-03-15T13:57:12;22.67;;;21.00;;
15454;SDS011;21057;51.024;7.540;2023-03-15T13:59:43;22.30;;;20.70;;
15454;SDS011;21057;51.024;7.540;2023-03-15T14:02:14;23.30;;;20.93;;
15454;SDS011;21057;51.024;7.540;2023-03-15T14:04:46;22.83;;;21.23;;
15454;SDS011;21057;51.024;7.540;2023-03-15T14:07:34;22.30;;;20.70;;
15454;SDS011;21057;51.024;7.540;2023-03-15T14:10:20;22.97;;;21.33;;
15454;SDS011;21057;51.024;7.540;2023-03-15T14:12:52;21.33;;;19.63;;
15454;SDS011;21057;51.024;7.540;2023-03-15T14:15:20;22.10;;;20.60;;
15454;SDS011;21057;51.024;7.540;2023-03-15T14:18:01;22.13;;;20.43;;
15454;SDS011;21057;51.024;7.540;2023-03-15T14:20:41;20.70;;;19.20;;
15454;SDS011;21057;51.024;7.540;2023-03-15T14:23:09;22.17;;;20.27;;
15454;SDS011;21057;51.024;7.540;2023-03-15T14:25:39;22.00;;;20.37;;
15454;SDS011;21057;51.024;7.540;2023-03-15T14:28:11;21.87;;;20.20;;
15454;SDS011;21057;51.024;7.540;2023-03-15T14:30:41;22.77;;;21.03;;
15454;SDS011;21057;51.024;7.540;2023-03-15T14:33:21;21.97;;;20.17;;
15454;SDS011;21057;51.024;7.540;2023-03-15T14:35:56;22.23;;;20.63;;
15454;SDS011;21057;51.024;7.540;2023-03-15T14:38:33;24.47;;;22.17;;
15454;SDS011;21057;51.024;7.540;2023-03-15T14:41:21;24.23;;;22.17;;
15454;SDS011;21057;51.024;7.540;2023-03-15T14:44:02;23.30;;;21.60;;
15454;SDS011;21057;51.024;7.540;2023-03-15T14:46:29;22.60;;;21.13;;
15454;SDS011;21057;51.024;7.540;2023-03-15T14:48:58;22.63;;;21.13;;
15454;SDS011;21057;51.024;7.540;2023-03-15T14:54:24;20.70;;;19.30;;
15454;SDS011;21057;51.024;7.540;2023-03-15T14:56:52;21.80;;;20.20;;
15454;SDS011;21057;51.024;7.540;2023-03-15T14:59:20;21.83;;;19.80;;
15454;SDS011;21057;51.024;7.540;2023-03-15T15:01:49;22.50;;;20.60;;
15454;SDS011;21057;51.024;7.540;2023-03-15T15:04:26;21.17;;;19.67;;
15454;SDS011;21057;51.024;7.540;2023-03-15T15:06:57;20.33;;;18.93;;
15454;SDS011;21057;51.024;7.540;2023-03-15T15:09:27;20.07;;;18.70;;
15454;SDS011;21057;51.024;7.540;2023-03-15T15:12:03;20.60;;;19.20;;
15454;SDS011;21057;51.024;7.540;2023-03-15T15:14:31;20.93;;;19.53;;
15454;SDS011;21057;51.024;7.540;2023-03-15T15:17:00;21.23;;;19.63;;
15454;SDS011;21057;51.024;7.540;2023-03-15T15:19:39;20.77;;;19.27;;